Time;durP1;ratioP1;P1;durP2;ratioP2;P2;SDS_P1;SDS_P2;PMS_P1;PMS_P2;Temp;Humidity;BMP_temperature;BMP_pressure;BME280_temperature;BME280_humidity;BME280_pressure;Samples;Min_cycle;Max_cycle;Signal;HPM_P1;HPM_P2
2022/03/27 00:00:58;;;;;;;5.53;3.03;;;;;;;;;;5087104;28;20059;-73
2022/03/27 00:03:24;;;;;;;8.25;3.25;;;;;;;;;;5086947;28;20096;-73
2022/03/27 00:05:50;;;;;;;4.43;2.65;;;;;;;;;;5101777;28;20497;-72
2022/03/27 00:08:16;;;;;;;4.00;3.13;;;;;;;;;;5110418;28;20360;-72
2022/03/27 00:13:27;;;;;;;6.97;3.33;;;;;;;;;;5095743;28;20081;-72
2022/03/27 00:15:54;;;;;;;4.50;2.97;;;;;;;;;;5091908;28;20036;-72
2022/03/27 00:18:20;;;;;;;4.55;2.95;;;;;;;;;;5090766;28;20028;-72
2022/03/27 00:20:46;;;;;;;6.32;3.33;;;;;;;;;;5100465;28;20508;-72
2022/03/27 00:23:12;;;;;;;5.78;2.90;;;;;;;;;;5082040;28;20036;-72
2022/03/27 00:25:38;;;;;;;7.78;3.67;;;;;;;;;;5089083;28;20372;-72
2022/03/27 00:28:04;;;;;;;6.28;4.18;;;;;;;;;;5071898;28;20039;-72
2022/03/27 00:30:30;;;;;;;7.00;3.72;;;;;;;;;;5087350;28;20032;-72
2022/03/27 00:32:57;;;;;;;8.95;3.40;;;;;;;;;;5089817;28;20039;-72
2022/03/27 00:35:23;;;;;;;5.30;3.22;;;;;;;;;;5088372;28;20031;-72
2022/03/27 00:37:51;;;;;;;3.53;2.85;;;;;;;;;;5097883;28;20489;-72
2022/03/27 00:40:18;;;;;;;8.75;4.22;;;;;;;;;;5076501;28;20032;-72
2022/03/27 00:42:45;;;;;;;6.32;3.00;;;;;;;;;;5106257;28;20020;-72
2022/03/27 00:45:11;;;;;;;5.95;3.35;;;;;;;;;;5083862;28;20019;-72
2022/03/27 00:47:37;;;;;;;3.95;3.13;;;;;;;;;;5076665;28;20764;-72
2022/03/27 00:50:04;;;;;;;5.55;3.30;;;;;;;;;;5091202;28;20395;-72
2022/03/27 00:52:30;;;;;;;6.07;2.97;;;;;;;;;;5087119;28;20131;-72
2022/03/27 00:54:56;;;;;;;7.47;3.42;;;;;;;;;;5072286;28;20503;-72
2022/03/27 00:57:23;;;;;;;6.63;3.70;;;;;;;;;;5087455;28;20422;-73
2022/03/27 00:59:49;;;;;;;8.98;3.60;;;;;;;;;;5099234;28;20510;-73
2022/03/27 01:02:15;;;;;;;9.50;3.97;;;;;;;;;;5100331;28;20050;-72
2022/03/27 01:04:46;;;;;;;9.88;3.60;;;;;;;;;;5100498;28;20028;-72
2022/03/27 01:07:20;;;;;;;8.90;3.80;;;;;;;;;;5099637;28;20382;-72
2022/03/27 01:09:47;;;;;;;9.18;3.83;;;;;;;;;;5091273;28;20038;-72
2022/03/27 01:12:14;;;;;;;7.90;4.03;;;;;;;;;;5095320;28;20106;-72
2022/03/27 01:14:41;;;;;;;8.85;4.00;;;;;;;;;;5084153;28;20107;-72
2022/03/27 01:17:08;;;;;;;6.80;3.70;;;;;;;;;;5088094;28;20085;-72
2022/03/27 01:19:40;;;;;;;8.07;4.15;;;;;;;;;;5070617;28;20020;-72
2022/03/27 01:22:06;;;;;;;10.13;4.30;;;;;;;;;;5083225;28;20472;-72
2022/03/27 01:24:32;;;;;;;10.02;4.35;;;;;;;;;;5079519;28;20531;-72
2022/03/27 01:26:59;;;;;;;11.07;4.60;;;;;;;;;;5093035;28;20039;-72
2022/03/27 01:29:25;;;;;;;12.20;4.53;;;;;;;;;;5094768;28;20028;-72
2022/03/27 01:31:54;;;;;;;12.02;4.75;;;;;;;;;;5090391;28;20463;-71
2022/03/27 01:34:20;;;;;;;10.07;5.50;;;;;;;;;;5091843;28;20028;-71
2022/03/27 01:36:46;;;;;;;12.32;6.10;;;;;;;;;;5112482;28;20046;-71
2022/03/27 01:39:13;;;;;;;14.50;6.00;;;;;;;;;;5101116;28;20036;-71
2022/03/27 01:41:40;;;;;;;19.27;5.47;;;;;;;;;;5090585;28;20028;-72
2022/03/27 01:44:15;;;;;;;11.05;4.88;;;;;;;;;;5093464;28;20072;-71
2022/03/27 01:46:41;;;;;;;10.82;5.97;;;;;;;;;;5094332;28;20039;-71
2022/03/27 01:49:08;;;;;;;12.82;5.47;;;;;;;;;;5104764;28;20066;-71
2022/03/27 01:51:36;;;;;;;13.27;5.78;;;;;;;;;;5093842;28;20407;-72
2022/03/27 01:54:02;;;;;;;17.50;6.85;;;;;;;;;;5082652;28;20445;-73
2022/03/27 01:56:28;;;;;;;16.35;6.43;;;;;;;;;;5091287;28;20043;-73
2022/03/27 01:58:54;;;;;;;19.08;6.10;;;;;;;;;;5112267;28;20081;-73
2022/03/27 02:01:21;;;;;;;10.70;6.30;;;;;;;;;;5073971;28;20041;-73
2022/03/27 02:03:47;;;;;;;19.73;7.18;;;;;;;;;;5098943;28;20024;-73
2022/03/27 02:06:15;;;;;;;13.50;6.15;;;;;;;;;;5063191;28;20035;-73
2022/03/27 02:08:42;;;;;;;11.95;6.13;;;;;;;;;;5103900;28;20051;-73
2022/03/27 02:11:08;;;;;;;19.13;6.70;;;;;;;;;;5097246;28;20060;-73
2022/03/27 02:13:35;;;;;;;14.68;5.82;;;;;;;;;;5100557;28;20525;-73
2022/03/27 02:16:02;;;;;;;11.57;6.03;;;;;;;;;;5095811;28;20040;-73
2022/03/27 02:18:32;;;;;;;10.65;6.13;;;;;;;;;;5092663;28;20056;-73
2022/03/27 02:21:00;;;;;;;9.73;4.75;;;;;;;;;;5093740;28;20493;-72
2022/03/27 02:23:26;;;;;;;10.73;5.57;;;;;;;;;;5091003;28;20031;-73
2022/03/27 02:25:53;;;;;;;11.75;5.32;;;;;;;;;;5091932;28;20476;-73
2022/03/27 02:28:19;;;;;;;12.10;5.13;;;;;;;;;;5101158;28;20039;-73
2022/03/27 02:30:45;;;;;;;13.32;5.63;;;;;;;;;;5094761;28;20039;-73
2022/03/27 02:33:12;;;;;;;14.05;5.93;;;;;;;;;;5092541;28;20028;-73
2022/03/27 02:35:38;;;;;;;13.20;5.30;;;;;;;;;;5100169;28;20056;-73
2022/03/27 02:38:05;;;;;;;11.38;5.00;;;;;;;;;;5085058;28;20032;-73
2022/03/27 02:40:34;;;;;;;18.50;6.03;;;;;;;;;;5094110;28;20028;-73
2022/03/27 02:43:01;;;;;;;11.13;6.07;;;;;;;;;;5063084;28;20033;-73
2022/03/27 02:45:28;;;;;;;15.27;6.70;;;;;;;;;;5097455;28;20107;-73
2022/03/27 02:47:54;;;;;;;10.73;4.88;;;;;;;;;;5091114;28;20103;-73
2022/03/27 02:50:20;;;;;;;15.75;4.45;;;;;;;;;;5095941;28;20064;-71
2022/03/27 02:52:46;;;;;;;10.98;4.85;;;;;;;;;;5098903;28;20055;-72
2022/03/27 02:55:13;;;;;;;15.57;5.22;;;;;;;;;;5101938;28;20043;-71
2022/03/27 02:57:39;;;;;;;12.90;5.47;;;;;;;;;;5093117;28;20024;-72
2022/03/27 03:00:06;;;;;;;12.88;5.60;;;;;;;;;;5093268;28;20034;-72
2022/03/27 03:02:32;;;;;;;11.93;4.65;;;;;;;;;;5092753;28;20020;-72
2022/03/27 03:04:58;;;;;;;12.07;4.78;;;;;;;;;;5086726;28;20376;-72
2022/03/27 03:07:25;;;;;;;11.27;4.35;;;;;;;;;;5092854;28;20024;-72
2022/03/27 03:09:51;;;;;;;10.88;4.93;;;;;;;;;;5089012;28;20043;-72
2022/03/27 03:12:17;;;;;;;11.45;5.57;;;;;;;;;;5090073;28;20474;-72
2022/03/27 03:14:44;;;;;;;13.68;4.85;;;;;;;;;;5098348;28;20027;-72
2022/03/27 03:17:11;;;;;;;10.60;5.25;;;;;;;;;;5098440;28;20055;-72
2022/03/27 03:19:37;;;;;;;13.43;4.55;;;;;;;;;;5107363;28;20115;-72
2022/03/27 03:22:03;;;;;;;13.77;5.43;;;;;;;;;;5091089;28;20031;-72
2022/03/27 03:24:30;;;;;;;16.70;5.43;;;;;;;;;;5097958;28;20475;-72
2022/03/27 03:26:56;;;;;;;14.18;5.50;;;;;;;;;;5079540;28;20060;-72
2022/03/27 03:29:23;;;;;;;8.57;4.63;;;;;;;;;;5085978;28;20040;-72
2022/03/27 03:31:49;;;;;;;12.20;6.70;;;;;;;;;;5093529;28;20020;-72
2022/03/27 03:34:15;;;;;;;13.45;5.50;;;;;;;;;;5074277;28;20029;-72
2022/03/27 03:36:41;;;;;;;14.32;5.22;;;;;;;;;;5094739;28;20503;-72
2022/03/27 03:39:07;;;;;;;15.77;5.90;;;;;;;;;;5079891;28;20032;-72
2022/03/27 03:41:33;;;;;;;13.88;5.55;;;;;;;;;;5090419;28;20036;-71
2022/03/27 03:44:00;;;;;;;14.85;5.82;;;;;;;;;;5083670;28;20475;-72
2022/03/27 03:46:26;;;;;;;11.82;4.93;;;;;;;;;;5089185;28;20487;-72
2022/03/27 03:48:52;;;;;;;10.23;4.80;;;;;;;;;;5092129;28;20039;-72
2022/03/27 03:51:18;;;;;;;17.45;5.18;;;;;;;;;;5103561;28;20055;-72
2022/03/27 03:53:44;;;;;;;9.63;4.35;;;;;;;;;;5111596;28;20050;-72
2022/03/27 03:56:13;;;;;;;12.50;5.05;;;;;;;;;;5095963;28;20032;-72
2022/03/27 03:58:39;;;;;;;13.90;6.00;;;;;;;;;;5077278;28;20115;-72
2022/03/27 04:01:05;;;;;;;10.15;4.53;;;;;;;;;;5089927;28;20383;-72
2022/03/27 04:03:31;;;;;;;13.13;4.80;;;;;;;;;;5109309;28;20360;-72
2022/03/27 04:05:57;;;;;;;12.13;4.65;;;;;;;;;;5097670;28;20016;-72
2022/03/27 04:08:23;;;;;;;14.45;4.53;;;;;;;;;;5091938;28;20032;-72
2022/03/27 04:10:49;;;;;;;12.30;4.95;;;;;;;;;;5095508;28;20031;-72
2022/03/27 04:13:16;;;;;;;12.98;4.57;;;;;;;;;;5087222;28;20028;-72
2022/03/27 04:15:42;;;;;;;11.48;4.75;;;;;;;;;;5090350;28;20031;-72
2022/03/27 04:18:09;;;;;;;15.32;4.97;;;;;;;;;;5104097;27;20028;-72
2022/03/27 04:20:35;;;;;;;8.27;4.28;;;;;;;;;;5087696;28;20387;-72
2022/03/27 04:23:01;;;;;;;15.50;5.10;;;;;;;;;;5106401;27;20025;-72
2022/03/27 04:25:28;;;;;;;15.32;5.75;;;;;;;;;;5060997;28;20360;-72
2022/03/27 04:27:54;;;;;;;14.43;5.45;;;;;;;;;;5067379;28;20384;-72
2022/03/27 04:30:20;;;;;;;13.40;5.70;;;;;;;;;;5098522;28;20073;-72
2022/03/27 04:32:47;;;;;;;11.60;5.30;;;;;;;;;;5085100;28;20028;-71
2022/03/27 04:35:13;;;;;;;19.40;5.90;;;;;;;;;;5087924;28;20024;-72
2022/03/27 04:37:43;;;;;;;11.70;4.57;;;;;;;;;;5098611;28;20057;-72
2022/03/27 04:40:10;;;;;;;15.10;5.18;;;;;;;;;;5072511;28;20178;-71
2022/03/27 04:42:36;;;;;;;11.20;4.88;;;;;;;;;;5088253;28;20070;-72
2022/03/27 04:45:03;;;;;;;9.65;5.25;;;;;;;;;;5081789;28;20391;-72
2022/03/27 04:47:29;;;;;;;10.93;5.38;;;;;;;;;;5098574;28;20379;-72
2022/03/27 04:49:55;;;;;;;12.48;5.65;;;;;;;;;;5101425;28;20047;-72
2022/03/27 04:52:21;;;;;;;20.55;5.03;;;;;;;;;;5082324;28;20055;-72
2022/03/27 04:54:47;;;;;;;9.88;5.90;;;;;;;;;;5081818;28;20040;-72
2022/03/27 04:57:13;;;;;;;15.07;7.10;;;;;;;;;;5092281;28;20035;-71
2022/03/27 04:59:39;;;;;;;15.93;6.20;;;;;;;;;;5078818;28;20037;-71
2022/03/27 05:02:05;;;;;;;15.70;5.50;;;;;;;;;;5082527;28;20056;-70
2022/03/27 05:04:31;;;;;;;14.70;5.80;;;;;;;;;;5083070;28;20030;-71
2022/03/27 05:06:58;;;;;;;13.95;6.13;;;;;;;;;;5079007;28;20379;-72
2022/03/27 05:09:24;;;;;;;26.05;10.35;;;;;;;;;;5093081;28;20062;-73
2022/03/27 05:11:50;;;;;;;20.25;7.70;;;;;;;;;;5072760;28;20039;-77
2022/03/27 05:14:16;;;;;;;19.58;7.53;;;;;;;;;;5094170;28;20032;-73
2022/03/27 05:16:42;;;;;;;24.83;7.70;;;;;;;;;;5091925;28;20436;-74
2022/03/27 05:19:08;;;;;;;25.10;7.82;;;;;;;;;;5089128;28;20027;-72
2022/03/27 05:21:35;;;;;;;18.85;7.38;;;;;;;;;;5086404;28;20028;-73
2022/03/27 05:24:01;;;;;;;21.90;6.90;;;;;;;;;;5093510;28;20471;-72
2022/03/27 05:26:27;;;;;;;30.73;7.97;;;;;;;;;;5094458;28;20020;-72
2022/03/27 05:28:54;;;;;;;24.42;7.38;;;;;;;;;;5075354;28;20074;-72
2022/03/27 05:31:21;;;;;;;21.52;7.78;;;;;;;;;;5094116;28;20043;-72
2022/03/27 05:33:47;;;;;;;23.48;7.35;;;;;;;;;;5088314;28;20027;-73
2022/03/27 05:36:13;;;;;;;53.25;7.80;;;;;;;;;;5092839;28;20043;-73
2022/03/27 05:38:40;;;;;;;108.32;22.38;;;;;;;;;;5110296;28;20035;-76
2022/03/27 05:41:07;;;;;;;41.58;6.07;;;;;;;;;;5099922;28;20044;-72
2022/03/27 05:43:33;;;;;;;42.08;4.85;;;;;;;;;;5090453;28;20024;-72
2022/03/27 05:45:59;;;;;;;50.13;4.60;;;;;;;;;;5099782;28;20077;-72
2022/03/27 05:48:25;;;;;;;21.55;4.18;;;;;;;;;;5109003;28;20114;-71
2022/03/27 05:50:51;;;;;;;25.45;4.85;;;;;;;;;;5063505;28;20024;-71
2022/03/27 05:53:18;;;;;;;9.98;3.65;;;;;;;;;;5089555;28;20035;-71
2022/03/27 05:55:44;;;;;;;14.73;5.75;;;;;;;;;;5094040;28;20447;-71
2022/03/27 05:58:10;;;;;;;17.98;5.55;;;;;;;;;;5090143;28;20583;-71
2022/03/27 06:00:36;;;;;;;24.48;7.60;;;;;;;;;;5107067;28;20059;-71
2022/03/27 06:03:02;;;;;;;25.25;6.95;;;;;;;;;;5100108;28;20032;-71
2022/03/27 06:05:28;;;;;;;22.23;6.30;;;;;;;;;;5104201;28;20445;-72
2022/03/27 06:07:55;;;;;;;18.85;6.43;;;;;;;;;;5091888;28;20052;-72
2022/03/27 06:10:31;;;;;;;11.63;5.53;;;;;;;;;;5096629;28;20047;-71
2022/03/27 06:12:58;;;;;;;13.95;4.85;;;;;;;;;;5100587;28;20498;-70
2022/03/27 06:15:25;;;;;;;10.95;4.15;;;;;;;;;;5074109;28;20115;-71
2022/03/27 06:17:52;;;;;;;8.55;4.18;;;;;;;;;;5095407;28;20020;-71
2022/03/27 06:20:19;;;;;;;45.53;21.65;;;;;;;;;;5095331;28;20032;-70
2022/03/27 06:22:45;;;;;;;45.88;22.67;;;;;;;;;;5073702;28;20019;-74
2022/03/27 06:25:12;;;;;;;13.35;6.95;;;;;;;;;;5095214;28;20036;-69
2022/03/27 06:27:38;;;;;;;16.10;5.88;;;;;;;;;;5072797;28;20025;-70
2022/03/27 06:30:08;;;;;;;10.68;6.13;;;;;;;;;;5090168;28;20383;-70
2022/03/27 06:32:36;;;;;;;12.40;6.22;;;;;;;;;;5083993;28;20121;-70
2022/03/27 06:35:03;;;;;;;18.20;7.28;;;;;;;;;;5097420;28;20035;-71
2022/03/27 06:37:29;;;;;;;19.08;7.05;;;;;;;;;;5093159;28;20040;-71
2022/03/27 06:39:55;;;;;;;17.90;6.22;;;;;;;;;;5093906;28;20051;-72
2022/03/27 06:42:22;;;;;;;19.63;6.05;;;;;;;;;;5096672;28;20036;-70
2022/03/27 06:44:48;;;;;;;25.13;6.35;;;;;;;;;;5096931;28;20027;-71
2022/03/27 06:47:15;;;;;;;17.48;5.10;;;;;;;;;;5093900;28;20056;-70
2022/03/27 06:49:41;;;;;;;18.80;5.80;;;;;;;;;;5089423;28;20055;-70
2022/03/27 06:52:07;;;;;;;20.85;5.00;;;;;;;;;;5091604;28;20140;-70
2022/03/27 06:54:34;;;;;;;24.05;5.93;;;;;;;;;;5089369;28;20085;-70
2022/03/27 06:57:00;;;;;;;28.23;6.38;;;;;;;;;;5090522;28;20035;-70
2022/03/27 06:59:26;;;;;;;26.10;6.05;;;;;;;;;;5106883;28;20514;-70
2022/03/27 07:04:37;;;;;;;28.02;7.07;;;;;;;;;;5090334;28;20039;-71
2022/03/27 07:07:03;;;;;;;36.17;6.55;;;;;;;;;;5083890;28;20086;-70
2022/03/27 07:09:29;;;;;;;30.13;6.20;;;;;;;;;;5095427;28;20044;-71
2022/03/27 07:11:55;;;;;;;27.85;5.10;;;;;;;;;;5090352;28;20028;-71
2022/03/27 07:14:24;;;;;;;26.15;5.72;;;;;;;;;;5095427;28;20024;-70
2022/03/27 07:16:50;;;;;;;30.45;5.35;;;;;;;;;;5089115;28;20471;-70
2022/03/27 07:19:16;;;;;;;35.10;6.10;;;;;;;;;;5057117;28;20597;-70
2022/03/27 07:21:42;;;;;;;21.50;4.25;;;;;;;;;;5077880;28;20474;-70
2022/03/27 07:24:08;;;;;;;29.80;5.57;;;;;;;;;;5077068;28;20024;-70
2022/03/27 07:26:35;;;;;;;58.28;19.00;;;;;;;;;;5091429;28;20032;-71
2022/03/27 07:29:02;;;;;;;34.72;8.95;;;;;;;;;;5091520;28;20028;-70
2022/03/27 07:31:28;;;;;;;31.95;6.85;;;;;;;;;;5100755;28;20036;-71
2022/03/27 07:33:55;;;;;;;37.00;7.90;;;;;;;;;;5074073;28;20499;-71
2022/03/27 07:36:21;;;;;;;37.33;6.93;;;;;;;;;;5094361;28;20485;-71
2022/03/27 07:38:47;;;;;;;34.58;7.28;;;;;;;;;;5102543;28;20043;-70
2022/03/27 07:41:13;;;;;;;33.03;6.38;;;;;;;;;;5080948;28;20028;-71
2022/03/27 07:43:39;;;;;;;51.05;9.43;;;;;;;;;;5084241;28;20051;-71
2022/03/27 07:46:05;;;;;;;28.52;5.43;;;;;;;;;;5095855;28;20492;-71
2022/03/27 07:48:32;;;;;;;37.80;6.28;;;;;;;;;;5090683;28;20039;-71
2022/03/27 07:50:58;;;;;;;36.58;6.78;;;;;;;;;;5099078;28;20082;-71
2022/03/27 07:53:24;;;;;;;25.75;6.22;;;;;;;;;;5072469;28;20560;-72
2022/03/27 07:55:50;;;;;;;31.85;6.80;;;;;;;;;;5089625;28;20043;-72
2022/03/27 07:58:16;;;;;;;27.27;6.15;;;;;;;;;;5085668;28;20364;-71
2022/03/27 08:00:42;;;;;;;27.85;6.38;;;;;;;;;;5083475;28;20088;-72
2022/03/27 08:03:08;;;;;;;36.05;6.53;;;;;;;;;;5093811;28;20035;-71
2022/03/27 08:05:36;;;;;;;35.75;6.88;;;;;;;;;;5101116;28;20544;-71
2022/03/27 08:08:02;;;;;;;32.85;5.85;;;;;;;;;;5074718;28;20040;-71
2022/03/27 08:10:28;;;;;;;28.15;6.78;;;;;;;;;;5090388;28;20044;-71
2022/03/27 08:12:54;;;;;;;35.33;5.70;;;;;;;;;;5092252;28;20028;-71
2022/03/27 08:15:21;;;;;;;32.42;6.15;;;;;;;;;;5090766;28;20463;-72
2022/03/27 08:17:47;;;;;;;31.77;6.20;;;;;;;;;;5091321;28;20093;-71
2022/03/27 08:20:13;;;;;;;38.83;5.95;;;;;;;;;;5099027;28;20189;-71
2022/03/27 08:22:39;;;;;;;38.10;7.57;;;;;;;;;;5095399;28;20111;-71
2022/03/27 08:25:06;;;;;;;37.80;6.63;;;;;;;;;;5088753;28;20062;-72
2022/03/27 08:27:33;;;;;;;31.67;6.20;;;;;;;;;;5086587;28;20037;-71
2022/03/27 08:30:00;;;;;;;35.03;6.88;;;;;;;;;;5090071;28;20463;-71
2022/03/27 08:32:27;;;;;;;38.15;6.15;;;;;;;;;;5086541;28;20032;-71
2022/03/27 08:34:53;;;;;;;38.92;6.10;;;;;;;;;;5090116;28;20047;-71
2022/03/27 08:37:19;;;;;;;36.33;7.55;;;;;;;;;;5094459;28;20032;-73
2022/03/27 08:39:45;;;;;;;50.40;12.75;;;;;;;;;;5086909;28;20031;-74
2022/03/27 08:42:13;;;;;;;36.00;7.95;;;;;;;;;;5095117;28;20057;-70
2022/03/27 08:44:39;;;;;;;40.33;6.80;;;;;;;;;;5087765;28;20043;-70
2022/03/27 08:47:18;;;;;;;32.72;6.68;;;;;;;;;;5076023;28;20487;-70
2022/03/27 08:49:48;;;;;;;36.42;6.60;;;;;;;;;;5094546;28;20024;-70
2022/03/27 08:52:17;;;;;;;34.42;6.75;;;;;;;;;;5068209;28;20056;-71
2022/03/27 08:55:02;;;;;;;30.88;6.15;;;;;;;;;;5088449;28;20024;-71
2022/03/27 08:57:47;;;;;;;29.02;6.43;;;;;;;;;;5090412;28;20038;-70
2022/03/27 09:00:13;;;;;;;28.75;5.78;;;;;;;;;;5082669;28;20037;-70
2022/03/27 09:02:41;;;;;;;33.80;7.50;;;;;;;;;;5078231;28;20036;-70
2022/03/27 09:05:07;;;;;;;35.38;6.50;;;;;;;;;;5092396;28;20037;-70
2022/03/27 09:07:33;;;;;;;35.50;5.93;;;;;;;;;;5083502;28;20098;-70
2022/03/27 09:10:00;;;;;;;45.97;7.25;;;;;;;;;;5103729;28;20471;-70
2022/03/27 09:12:26;;;;;;;30.58;6.15;;;;;;;;;;5087440;28;20023;-71
2022/03/27 09:14:52;;;;;;;31.92;7.22;;;;;;;;;;5108508;28;20047;-70
2022/03/27 09:17:18;;;;;;;63.20;23.65;;;;;;;;;;5081190;28;20027;-71
2022/03/27 09:19:48;;;;;;;31.83;7.22;;;;;;;;;;5078200;28;20024;-70
2022/03/27 09:22:29;;;;;;;35.50;7.22;;;;;;;;;;5084583;28;20024;-71
2022/03/27 09:24:59;;;;;;;36.17;7.18;;;;;;;;;;5074970;28;20115;-73
2022/03/27 09:27:30;;;;;;;33.00;6.82;;;;;;;;;;5084530;28;20024;-72
2022/03/27 09:30:06;;;;;;;24.67;5.97;;;;;;;;;;5071962;28;20504;-72
2022/03/27 09:32:35;;;;;;;34.85;6.57;;;;;;;;;;5079306;28;20020;-71
2022/03/27 09:35:08;;;;;;;29.15;6.22;;;;;;;;;;5089665;28;20040;-72
2022/03/27 09:37:37;;;;;;;29.25;7.03;;;;;;;;;;5085529;28;20028;-72
2022/03/27 09:40:03;;;;;;;27.92;6.63;;;;;;;;;;5090433;28;20028;-71
2022/03/27 09:42:30;;;;;;;32.22;7.07;;;;;;;;;;5098480;28;20050;-72
2022/03/27 09:45:12;;;;;;;30.10;7.03;;;;;;;;;;5094890;28;20081;-73
2022/03/27 09:47:39;;;;;;;32.63;8.23;;;;;;;;;;5081346;28;20024;-75
2022/03/27 09:50:05;;;;;;;26.77;6.93;;;;;;;;;;5093423;28;20071;-74
2022/03/27 09:52:33;;;;;;;22.73;5.95;;;;;;;;;;5090764;28;20131;-76
2022/03/27 09:55:08;;;;;;;26.40;5.55;;;;;;;;;;5083803;28;20032;-73
2022/03/27 09:57:35;;;;;;;22.95;5.35;;;;;;;;;;5092756;28;20020;-72
2022/03/27 10:00:20;;;;;;;29.63;6.47;;;;;;;;;;5091144;28;20388;-71
2022/03/27 10:02:46;;;;;;;23.38;5.13;;;;;;;;;;5100958;28;20047;-72
2022/03/27 10:05:14;;;;;;;23.88;5.68;;;;;;;;;;5096625;28;20071;-70
2022/03/27 10:07:40;;;;;;;24.10;5.88;;;;;;;;;;5083296;28;20020;-71
2022/03/27 10:10:11;;;;;;;24.45;5.25;;;;;;;;;;5093480;28;20362;-71
2022/03/27 10:12:38;;;;;;;21.70;4.85;;;;;;;;;;5079591;28;20028;-70
2022/03/27 10:15:06;;;;;;;27.90;6.85;;;;;;;;;;5107516;28;20023;-70
2022/03/27 10:17:34;;;;;;;23.38;5.57;;;;;;;;;;5090480;28;20027;-71
2022/03/27 10:20:04;;;;;;;27.25;5.63;;;;;;;;;;5073785;28;20511;-72
2022/03/27 10:22:31;;;;;;;35.10;14.43;;;;;;;;;;5090392;28;20163;-70
2022/03/27 10:25:01;;;;;;;21.83;5.45;;;;;;;;;;5083479;28;20122;-73
2022/03/27 10:27:30;;;;;;;17.48;5.15;;;;;;;;;;5084109;28;20035;-72
2022/03/27 10:29:58;;;;;;;17.70;4.03;;;;;;;;;;5090592;28;20036;-72
2022/03/27 10:32:24;;;;;;;20.65;5.10;;;;;;;;;;5100485;28;20027;-73
2022/03/27 10:35:02;;;;;;;15.48;4.35;;;;;;;;;;5082520;28;20162;-73
2022/03/27 10:37:48;;;;;;;17.75;3.97;;;;;;;;;;5083842;28;20408;-73
2022/03/27 10:40:23;;;;;;;17.83;3.92;;;;;;;;;;5098803;28;20027;-72
2022/03/27 10:43:08;;;;;;;23.40;4.60;;;;;;;;;;5082474;28;20078;-73
2022/03/27 10:45:35;;;;;;;19.52;4.80;;;;;;;;;;5093484;28;20023;-73
2022/03/27 10:48:20;;;;;;;20.92;4.65;;;;;;;;;;5069399;28;20114;-73
2022/03/27 10:50:46;;;;;;;14.65;3.97;;;;;;;;;;5073733;28;20071;-72
2022/03/27 10:53:13;;;;;;;21.50;4.43;;;;;;;;;;5094576;28;20028;-71
2022/03/27 10:55:46;;;;;;;23.63;5.00;;;;;;;;;;5098094;28;20498;-73
2022/03/27 10:58:31;;;;;;;36.50;11.75;;;;;;;;;;5083322;28;20490;-71
2022/03/27 11:01:02;;;;;;;23.00;6.22;;;;;;;;;;5096294;28;20118;-71
2022/03/27 11:03:44;;;;;;;20.88;4.45;;;;;;;;;;5082414;28;20083;-72
2022/03/27 11:06:27;;;;;;;12.40;4.10;;;;;;;;;;5080988;28;20479;-72
2022/03/27 11:08:54;;;;;;;20.83;5.03;;;;;;;;;;5079735;28;20693;-72
2022/03/27 11:11:39;;;;;;;20.30;4.57;;;;;;;;;;5078743;28;20112;-71
2022/03/27 11:14:06;;;;;;;17.35;4.47;;;;;;;;;;5097156;28;20356;-72
2022/03/27 11:16:40;;;;;;;16.40;4.10;;;;;;;;;;5086706;28;20472;-72
2022/03/27 11:19:06;;;;;;;21.25;5.43;;;;;;;;;;5094931;28;20432;-72
2022/03/27 11:21:32;;;;;;;20.83;4.93;;;;;;;;;;5090259;28;20111;-72
2022/03/27 11:24:01;;;;;;;15.30;4.00;;;;;;;;;;5080194;28;20347;-72
2022/03/27 11:26:29;;;;;;;16.58;4.07;;;;;;;;;;5093684;28;20043;-72
2022/03/27 11:28:56;;;;;;;18.85;4.60;;;;;;;;;;5092335;28;20035;-73
2022/03/27 11:31:22;;;;;;;20.08;4.85;;;;;;;;;;5087301;28;20043;-72
2022/03/27 11:34:07;;;;;;;18.63;4.50;;;;;;;;;;5083431;28;20020;-72
2022/03/27 11:36:34;;;;;;;18.48;3.88;;;;;;;;;;5075957;28;20023;-72
2022/03/27 11:39:04;;;;;;;21.77;4.18;;;;;;;;;;5067585;28;20039;-73
2022/03/27 11:41:44;;;;;;;14.20;3.75;;;;;;;;;;5071890;28;20472;-73
2022/03/27 11:44:22;;;;;;;16.25;3.67;;;;;;;;;;5094535;28;20031;-73
2022/03/27 11:46:49;;;;;;;19.38;4.72;;;;;;;;;;5093015;28;20024;-73
2022/03/27 11:49:17;;;;;;;17.63;3.30;;;;;;;;;;5091486;28;20032;-72
2022/03/27 11:51:44;;;;;;;12.63;3.67;;;;;;;;;;5090774;28;20117;-72
2022/03/27 11:54:21;;;;;;;14.93;3.53;;;;;;;;;;5083754;28;20889;-72
2022/03/27 11:56:54;;;;;;;15.48;3.83;;;;;;;;;;5070464;28;20036;-72
2022/03/27 11:59:20;;;;;;;17.55;3.88;;;;;;;;;;5082398;28;20462;-72
2022/03/27 12:01:51;;;;;;;18.50;3.65;;;;;;;;;;5069020;28;20059;-72
2022/03/27 12:04:18;;;;;;;11.18;3.30;;;;;;;;;;5082321;28;20036;-72
2022/03/27 12:06:45;;;;;;;14.07;3.17;;;;;;;;;;5066156;28;20024;-72
2022/03/27 12:09:23;;;;;;;15.77;3.80;;;;;;;;;;5090067;28;20040;-72
2022/03/27 12:12:02;;;;;;;14.60;3.58;;;;;;;;;;5112157;28;20103;-71
2022/03/27 12:14:28;;;;;;;15.93;3.58;;;;;;;;;;5088410;28;20100;-71
2022/03/27 12:16:55;;;;;;;15.27;3.40;;;;;;;;;;5088558;28;20028;-71
2022/03/27 12:19:21;;;;;;;9.25;2.42;;;;;;;;;;5090368;28;20031;-71
2022/03/27 12:21:47;;;;;;;13.90;3.35;;;;;;;;;;5077525;28;20040;-72
2022/03/27 12:24:16;;;;;;;11.23;2.47;;;;;;;;;;5079466;28;20028;-72
2022/03/27 12:29:40;;;;;;;13.65;2.85;;;;;;;;;;5081177;28;20083;-72
2022/03/27 12:32:08;;;;;;;10.18;2.70;;;;;;;;;;5095707;28;20080;-72
2022/03/27 12:34:39;;;;;;;14.05;3.47;;;;;;;;;;5082997;28;20472;-72
2022/03/27 12:37:09;;;;;;;10.38;2.95;;;;;;;;;;5087469;28;20036;-73
2022/03/27 12:39:58;;;;;;;8.25;2.65;;;;;;;;;;5091270;28;20102;-72
2022/03/27 12:42:36;;;;;;;11.45;3.08;;;;;;;;;;5089554;28;20734;-72
2022/03/27 12:45:22;;;;;;;11.23;2.97;;;;;;;;;;5091674;28;20371;-72
2022/03/27 12:47:52;;;;;;;14.57;3.10;;;;;;;;;;5078706;28;20511;-72
2022/03/27 12:50:35;;;;;;;11.32;2.53;;;;;;;;;;5085603;28;20031;-72
2022/03/27 12:53:04;;;;;;;11.98;2.85;;;;;;;;;;5087462;28;20051;-72
2022/03/27 12:55:48;;;;;;;10.52;2.40;;;;;;;;;;5071695;28;20024;-72
2022/03/27 12:58:16;;;;;;;8.07;2.53;;;;;;;;;;5103709;28;20124;-72
2022/03/27 13:00:43;;;;;;;15.68;3.10;;;;;;;;;;5088816;28;20420;-72
2022/03/27 13:03:17;;;;;;;14.32;2.92;;;;;;;;;;5095105;28;20106;-72
2022/03/27 13:05:46;;;;;;;18.40;2.83;;;;;;;;;;5076711;28;20067;-72
2022/03/27 13:08:12;;;;;;;12.07;2.20;;;;;;;;;;5089246;28;20035;-71
2022/03/27 13:10:39;;;;;;;13.88;2.85;;;;;;;;;;5092546;28;20126;-72
2022/03/27 13:13:13;;;;;;;13.60;2.63;;;;;;;;;;5085833;28;20028;-71
2022/03/27 13:15:54;;;;;;;15.75;3.78;;;;;;;;;;5087657;28;20593;-71
2022/03/27 13:18:28;;;;;;;10.23;2.20;;;;;;;;;;5086272;28;20062;-71
2022/03/27 13:20:54;;;;;;;14.73;3.05;;;;;;;;;;5094499;28;20036;-71
2022/03/27 13:23:20;;;;;;;14.65;3.83;;;;;;;;;;5085105;28;20039;-72
2022/03/27 13:25:46;;;;;;;12.23;2.65;;;;;;;;;;5093021;28;20593;-71
2022/03/27 13:28:12;;;;;;;15.88;3.30;;;;;;;;;;5074415;28;20043;-72
2022/03/27 13:30:38;;;;;;;12.20;2.72;;;;;;;;;;5088972;28;20440;-72
2022/03/27 13:33:05;;;;;;;21.60;3.67;;;;;;;;;;5089018;28;20036;-70
2022/03/27 13:35:32;;;;;;;13.85;3.38;;;;;;;;;;5091841;28;20028;-69
2022/03/27 13:37:59;;;;;;;17.23;3.70;;;;;;;;;;5087261;28;20060;-70
2022/03/27 13:43:13;;;;;;;23.05;4.35;;;;;;;;;;5078688;28;20122;-70
2022/03/27 13:45:40;;;;;;;18.05;3.67;;;;;;;;;;5090644;28;20029;-71
2022/03/27 13:48:06;;;;;;;17.83;3.97;;;;;;;;;;5074582;28;20035;-70
2022/03/27 13:50:33;;;;;;;13.82;3.40;;;;;;;;;;5092134;28;20383;-70
2022/03/27 13:52:59;;;;;;;13.82;4.00;;;;;;;;;;5085370;28;20056;-70
2022/03/27 13:55:25;;;;;;;17.55;3.67;;;;;;;;;;5085639;28;20028;-70
2022/03/27 13:57:51;;;;;;;16.90;3.25;;;;;;;;;;5101780;28;20032;-70
2022/03/27 14:00:18;;;;;;;13.65;4.07;;;;;;;;;;5091201;28;20090;-70
2022/03/27 14:02:44;;;;;;;15.93;3.85;;;;;;;;;;5092839;28;20028;-70
2022/03/27 14:05:10;;;;;;;20.58;3.85;;;;;;;;;;5093104;28;20051;-70
2022/03/27 14:07:36;;;;;;;26.20;6.80;;;;;;;;;;5078172;28;20044;-71
2022/03/27 14:10:03;;;;;;;19.23;5.13;;;;;;;;;;5076986;28;20040;-72
2022/03/27 14:12:29;;;;;;;24.20;5.45;;;;;;;;;;5077035;28;20028;-72
2022/03/27 14:14:55;;;;;;;17.73;4.35;;;;;;;;;;5088343;28;20436;-72
2022/03/27 14:17:21;;;;;;;17.42;4.18;;;;;;;;;;5082873;28;20430;-72
2022/03/27 14:19:47;;;;;;;19.63;4.80;;;;;;;;;;5099908;28;20050;-71
2022/03/27 14:22:13;;;;;;;20.33;3.75;;;;;;;;;;5084461;28;20028;-72
2022/03/27 14:24:39;;;;;;;16.25;2.97;;;;;;;;;;5085732;28;20111;-72
2022/03/27 14:27:06;;;;;;;22.00;4.85;;;;;;;;;;5086487;28;20035;-71
2022/03/27 14:29:33;;;;;;;19.67;3.90;;;;;;;;;;5093673;27;20067;-72
2022/03/27 14:31:59;;;;;;;20.60;3.63;;;;;;;;;;5090786;28;20115;-72
2022/03/27 14:34:25;;;;;;;20.15;3.92;;;;;;;;;;5095077;28;20016;-71
2022/03/27 14:36:51;;;;;;;18.15;3.45;;;;;;;;;;5082355;28;20037;-71
2022/03/27 14:39:18;;;;;;;18.98;3.95;;;;;;;;;;5093597;28;20046;-71
2022/03/27 14:41:44;;;;;;;14.55;3.85;;;;;;;;;;5084937;28;20040;-72
2022/03/27 14:44:10;;;;;;;20.55;4.07;;;;;;;;;;5098749;28;20584;-71
2022/03/27 14:46:37;;;;;;;21.65;4.38;;;;;;;;;;5105314;28;20058;-72